createdAt,value
2023-04-21T17:15:30.398Z,101017.79
2023-04-21T17:19:59.883Z,101018.31
2023-04-21T17:24:38.030Z,101021.80
2023-04-21T17:28:55.384Z,101021.91
2023-04-21T17:33:26.808Z,101021.73
2023-04-21T17:38:01.119Z,101019.98
2023-04-21T17:42:40.355Z,101016.48
2023-04-21T17:47:12.707Z,101018.45
2023-04-21T17:51:44.051Z,101019.62
2023-04-21T17:56:13.736Z,101019.23
2023-04-21T18:02:10.192Z,101018.90
2023-04-21T18:05:24.762Z,101020.85
2023-04-21T18:09:55.595Z,101020.73
2023-04-21T18:14:25.231Z,101029.34
2023-04-21T18:19:27.497Z,101029.59
2023-04-21T18:23:19.360Z,101034.09
2023-04-21T18:27:00.520Z,101036.92
2023-04-21T18:30:51.069Z,101043.11
2023-04-21T18:34:41.846Z,101042.09
2023-04-21T18:38:15.815Z,101038.85
2023-04-21T18:42:08.695Z,101036.52
2023-04-21T18:45:58.071Z,101034.82
2023-04-21T18:49:47.372Z,101034.52
2023-04-21T18:53:37.339Z,101034.77
2023-04-21T18:57:09.994Z,101033.61
2023-04-21T19:00:40.167Z,101032.89
2023-04-21T19:04:11.474Z,101030.48
2023-04-21T19:08:01.179Z,101030.87
2023-04-21T19:11:53.691Z,101027.95
2023-04-21T19:15:43.829Z,101030.08
2023-04-21T19:19:33.080Z,101028.60
2023-04-21T19:22:50.449Z,101031.02
2023-04-21T19:26:30.783Z,101031.23
2023-04-21T19:29:43.830Z,101030.95
2023-04-21T19:33:32.702Z,101032.44
2023-04-21T19:37:13.047Z,101031.54
2023-04-21T19:40:38.418Z,101032.39
2023-04-21T19:44:25.864Z,101028.46
2023-04-21T19:47:34.090Z,101027.52
2023-04-21T19:50:59.040Z,101029.31
2023-04-21T19:53:43.867Z,101026.56
2023-04-21T19:57:06.377Z,101023.98
2023-04-21T20:00:01.048Z,101026.94
2023-04-21T20:03:13.677Z,101022.77
2023-04-21T20:06:13.440Z,101026.31
2023-04-21T20:09:06.900Z,101025.41
2023-04-21T20:12:07.189Z,101020.67
2023-04-21T20:14:54.295Z,101022.98
2023-04-21T20:17:38.517Z,101021.05
2023-04-21T20:20:17.858Z,101021.85
2023-04-21T20:22:51.979Z,101021.41
2023-04-21T20:25:44.320Z,101022.95
2023-04-21T20:29:05.637Z,101024.21
2023-04-21T20:32:37.448Z,101024.26
2023-04-21T20:36:09.940Z,101030.66
2023-04-21T20:39:23.662Z,101027.75
2023-04-21T20:42:48.660Z,101025.53
2023-04-21T20:46:19.571Z,101028.77
2023-04-21T20:49:02.142Z,101028.39
2023-04-21T20:52:40.101Z,101028.04
2023-04-21T20:55:56.609Z,101030.77
2023-04-21T20:59:26.316Z,101028.89
2023-04-21T21:03:16.133Z,101031.80
2023-04-21T21:06:48.653Z,101032.23
2023-04-21T21:09:58.462Z,101052.73
2023-04-21T21:13:37.754Z,101050.33
2023-04-21T21:17:26.632Z,101052.06
2023-04-21T21:21:16.262Z,101050.58
2023-04-21T21:25:07.828Z,101049.67
2023-04-21T21:28:38.521Z,101049.55
2023-04-21T21:32:07.363Z,101044.45
2023-04-21T21:35:39.828Z,101046.87
2023-04-21T21:39:17.847Z,101050.15
2023-04-21T21:43:00.172Z,101054.39
2023-04-21T21:46:46.863Z,101051.52
2023-04-21T21:50:20.691Z,101055.32
2023-04-21T21:53:54.403Z,101053.47
2023-04-21T21:57:26.041Z,101053.65
2023-04-21T22:00:47.226Z,101054.09
2023-04-21T22:03:58.560Z,101058.27
2023-04-21T22:07:38.950Z,101057.94
2023-04-21T22:10:34.019Z,101057.17
2023-04-21T22:14:21.174Z,101050.35
2023-04-21T22:18:00.232Z,101052.27
2023-04-21T22:21:23.862Z,101051.98
2023-04-21T22:25:12.809Z,101054.23
2023-04-21T22:28:53.224Z,101058.51
2023-04-21T22:32:25.921Z,101057.13
2023-04-21T22:36:15.057Z,101059.70
2023-04-21T22:39:31.344Z,101055.92
2023-04-21T22:42:44.353Z,101058.33
2023-04-21T22:45:54.074Z,101057.11
2023-04-21T22:48:56.528Z,101057.66
2023-04-21T22:52:01.891Z,101055.09
2023-04-21T22:55:38.722Z,101058.16
2023-04-21T22:59:15.036Z,101059.58
2023-04-21T23:02:20.035Z,101062.58
2023-04-21T23:05:29.265Z,101062.14
2023-04-21T23:08:53.895Z,101062.23
2023-04-21T23:12:16.358Z,101062.66
2023-04-21T23:15:27.688Z,101062.29
2023-04-21T23:18:57.097Z,101060.33
2023-04-21T23:22:24.105Z,101058.73
2023-04-21T23:25:40.809Z,101059.41
2023-04-21T23:29:18.178Z,101052.42
2023-04-21T23:32:27.015Z,101048.52
2023-04-21T23:36:05.201Z,101048.41
2023-04-21T23:39:21.553Z,101052.70
2023-04-21T23:42:29.844Z,101050.50
2023-04-21T23:45:55.017Z,101045.18
2023-04-21T23:48:36.050Z,101047.27
2023-04-21T23:51:17.510Z,101046.25
2023-04-21T23:55:06.481Z,101043.27
2023-04-21T23:58:54.409Z,101043.70
